This is the latest recevied weather packets stored in our database for station/object KA7KDX-4. If no packets are shown the sender has not sent any weather packets the latest 10 day(s).
| Time | Temp. | Humidity | Pressure | Rain* | Wind** | Luminosity | Snow |
|---|---|---|---|---|---|---|---|
| 1777042806 | 13.33° C | 28% | 1007.8 hPa | 0 mm | - | - | - |
| 1777042506 | 13.33° C | 28% | 1008 hPa | 0 mm | - | - | - |
| 1777042206 | 12.78° C | 29% | 1008.1 hPa | 0 mm | - | - | - |
| 1777041906 | 12.78° C | 29% | 1008.2 hPa | 0 mm | - | - | - |
| 1777041606 | 12.78° C | 29% | 1008.3 hPa | 0 mm | - | - | - |
| 1777041306 | 12.78° C | 29% | 1008.4 hPa | 0 mm | - | - | - |
| 1777041005 | 12.78° C | 29% | 1008.5 hPa | 0 mm | - | - | - |
| 1777040705 | 12.22° C | 30% | 1008.8 hPa | 0 mm | - | - | - |
| 1777040405 | 11.67° C | 31% | 1009.1 hPa | 0 mm | - | - | - |
| 1777040105 | 11.67° C | 31% | 1009.2 hPa | 0 mm | - | - | - |
| 1777039806 | 11.11° C | 32% | 1009.3 hPa | 0 mm | - | - | - |
| 1777039506 | 11.11° C | 31% | 1009.4 hPa | 0 mm | - | - | - |
| 1777039206 | 10.56° C | 32% | 1009.6 hPa | 0 mm | - | - | - |
| 1777038906 | 10.56° C | 33% | 1009.7 hPa | 0 mm | - | - | - |
| 1777038606 | 10.56° C | 33% | 1009.8 hPa | 0 mm | - | - | - |
| 1777038306 | 10° C | 34% | 1010 hPa | 0 mm | - | - | - |
| 1777038005 | 9.44° C | 34% | 1010.2 hPa | 0 mm | - | - | - |
| 1777037705 | 9.44° C | 34% | 1010.4 hPa | 0 mm | - | - | - |
| 1777037405 | 9.44° C | 35% | 1010.4 hPa | 0 mm | - | - | - |
| 1777037105 | 8.89° C | 35% | 1010.5 hPa | 0 mm | - | - | - |
| 1777036806 | 8.89° C | 34% | 1010.5 hPa | 0 mm | - | - | - |
| 1777036506 | 8.33° C | 35% | 1010.7 hPa | 0 mm | - | - | - |
| 1777036206 | 8.33° C | 35% | 1010.8 hPa | 0 mm | - | - | - |
| 1777035906 | 7.78° C | 36% | 1011 hPa | 0 mm | - | - | - |
| 1777035606 | 7.78° C | 37% | 1011.1 hPa | 0 mm | - | - | - |
* Rain latest hour (hover to see other rain measurements)
** Current wind speed in m/s (hover to see current wind gust speed)